createdAt,value
2018-09-21T00:01:47.763Z,18.29
2018-09-21T00:04:16.706Z,18.28
2018-09-21T00:06:45.626Z,18.37
2018-09-21T00:09:14.648Z,18.34
2018-09-21T00:11:43.552Z,18.28
2018-09-21T00:14:12.462Z,18.25
2018-09-21T00:16:41.430Z,18.27
2018-09-21T00:19:10.371Z,18.29
2018-09-21T00:21:39.275Z,18.21
2018-09-21T00:24:08.223Z,18.18
2018-09-21T00:26:37.141Z,18.16
2018-09-21T00:29:06.055Z,18.16
2018-09-21T00:31:35.024Z,18.02
2018-09-21T00:34:03.958Z,18.04
2018-09-21T00:36:32.866Z,18.07
2018-09-21T00:39:01.900Z,17.99
2018-09-21T00:41:30.842Z,17.81
2018-09-21T00:43:59.775Z,17.91
2018-09-21T00:46:28.735Z,18.02
2018-09-21T00:48:57.632Z,18.15
2018-09-21T00:51:26.543Z,18.33
2018-09-21T00:53:56.816Z,18.30
2018-09-21T00:56:25.605Z,18.39
2018-09-21T00:58:54.763Z,18.44
2018-09-21T01:01:23.769Z,18.43
2018-09-21T01:03:52.606Z,18.44
2018-09-21T01:06:21.444Z,18.41
2018-09-21T01:08:50.330Z,18.39
2018-09-21T01:11:19.182Z,18.45
2018-09-21T01:13:48.030Z,18.44
2018-09-21T01:16:16.899Z,18.52
2018-09-21T01:18:45.717Z,18.47
2018-09-21T01:21:14.562Z,18.48
2018-09-21T01:23:43.463Z,18.35
2018-09-21T01:26:12.359Z,18.23
2018-09-21T01:28:41.239Z,18.23
2018-09-21T01:31:10.122Z,18.18
2018-09-21T01:33:38.947Z,18.20
2018-09-21T01:36:07.829Z,18.20
2018-09-21T01:38:36.703Z,18.14
2018-09-21T01:41:05.553Z,18.11
2018-09-21T01:43:34.382Z,18.12
2018-09-21T01:46:04.826Z,18.20
2018-09-21T01:48:33.653Z,18.22
2018-09-21T01:51:02.803Z,18.10
2018-09-21T01:53:32.494Z,18.04
2018-09-21T01:56:01.310Z,18.01
2018-09-21T01:58:30.146Z,17.99
2018-09-21T02:01:00.217Z,17.89
2018-09-21T02:03:29.017Z,17.96
2018-09-21T02:05:57.857Z,17.90
2018-09-21T02:08:26.646Z,17.83
2018-09-21T02:10:55.547Z,17.56
2018-09-21T02:13:24.458Z,17.52
2018-09-21T02:15:53.414Z,17.20
2018-09-21T02:18:22.245Z,17.22
2018-09-21T02:20:51.108Z,17.06
2018-09-21T02:23:19.946Z,17.06
2018-09-21T02:25:48.794Z,16.84
2018-09-21T02:28:17.630Z,16.90
2018-09-21T02:30:46.479Z,16.79
2018-09-21T02:33:15.362Z,16.67
2018-09-21T02:35:44.187Z,16.62
2018-09-21T02:38:12.993Z,16.54
2018-09-21T02:40:43.112Z,16.40
2018-09-21T02:43:11.929Z,16.26
2018-09-21T02:45:40.753Z,16.23
2018-09-21T02:48:09.590Z,16.33
2018-09-21T02:50:38.388Z,16.04
2018-09-21T02:53:07.227Z,16.18
2018-09-21T02:55:36.116Z,16.09
2018-09-21T02:58:05.026Z,16.19
2018-09-21T03:00:33.959Z,16.46
2018-09-21T03:03:04.153Z,16.53
2018-09-21T03:05:33.109Z,16.63
2018-09-21T03:08:01.968Z,16.79
2018-09-21T03:10:32.065Z,17.02
2018-09-21T03:13:01.173Z,16.99
2018-09-21T03:15:30.027Z,16.55
2018-09-21T03:17:58.854Z,16.28
2018-09-21T03:20:29.092Z,16.06
2018-09-21T03:22:57.986Z,16.15
2018-09-21T03:25:26.858Z,15.99
2018-09-21T03:27:55.741Z,16.08
2018-09-21T03:30:24.664Z,16.74
2018-09-21T03:32:53.479Z,17.17
2018-09-21T03:35:22.323Z,17.20
2018-09-21T03:37:52.530Z,17.20
2018-09-21T03:40:21.472Z,17.23
2018-09-21T03:42:50.505Z,17.25
2018-09-21T03:45:20.661Z,17.15
2018-09-21T03:47:49.494Z,16.55
2018-09-21T03:50:19.677Z,15.96
2018-09-21T03:52:48.514Z,15.69
2018-09-21T03:55:17.363Z,15.72
2018-09-21T03:57:46.317Z,15.86
2018-09-21T04:00:15.138Z,15.76
2018-09-21T04:02:43.989Z,16.31
2018-09-21T04:05:14.213Z,16.49
2018-09-21T04:07:43.069Z,16.58
2018-09-21T04:10:11.887Z,16.59
2018-09-21T04:12:42.095Z,16.39
2018-09-21T04:15:10.976Z,16.13
2018-09-21T04:17:39.761Z,16.11
2018-09-21T04:20:09.986Z,16.12
2018-09-21T04:22:38.945Z,16.08
2018-09-21T04:25:09.128Z,16.13
2018-09-21T04:27:42.066Z,16.16
2018-09-21T04:32:34.075Z,16.24
2018-09-21T04:35:02.936Z,16.31
2018-09-21T04:37:31.754Z,16.41
2018-09-21T04:40:00.606Z,16.44
2018-09-21T04:42:29.495Z,16.51
2018-09-21T04:44:58.367Z,16.67
2018-09-21T04:47:28.321Z,16.76
2018-09-21T04:49:57.253Z,16.91
2018-09-21T04:52:26.099Z,16.94
2018-09-21T04:54:54.976Z,17.11
2018-09-21T04:57:23.840Z,17.33
2018-09-21T04:59:52.690Z,17.40
2018-09-21T05:02:21.509Z,17.44
2018-09-21T05:04:50.395Z,17.50
2018-09-21T05:07:19.180Z,17.49
2018-09-21T05:09:48.007Z,17.61
2018-09-21T05:12:17.022Z,17.82
2018-09-21T05:14:46.586Z,17.61
2018-09-21T05:17:15.477Z,17.84
2018-09-21T05:19:44.401Z,17.94
2018-09-21T05:22:13.406Z,18.15
2018-09-21T05:24:48.437Z,18.20
2018-09-21T05:27:17.322Z,18.30
2018-09-21T05:29:46.168Z,18.40
2018-09-21T05:32:15.075Z,18.51
2018-09-21T05:34:44.095Z,18.61
2018-09-21T05:37:12.774Z,18.62
2018-09-21T05:39:41.582Z,18.74
2018-09-21T05:42:10.442Z,18.69
2018-09-21T05:44:39.281Z,18.82
2018-09-21T05:47:08.350Z,18.91
2018-09-21T05:49:37.165Z,19.11
2018-09-21T05:52:06.413Z,19.11
2018-09-21T05:54:35.297Z,18.99
2018-09-21T05:57:04.109Z,18.77
2018-09-21T05:59:33.005Z,18.67
2018-09-21T06:02:01.889Z,18.74
2018-09-21T06:04:30.706Z,18.93
2018-09-21T06:06:59.715Z,19.23
2018-09-21T06:09:28.511Z,19.48
2018-09-21T06:11:57.319Z,19.68
2018-09-21T06:14:26.196Z,19.87
2018-09-21T06:16:55.277Z,20.08
2018-09-21T06:19:24.124Z,20.27
2018-09-21T06:21:52.897Z,20.48
2018-09-21T06:24:21.796Z,20.63
2018-09-21T06:26:50.635Z,20.72
2018-09-21T06:29:19.581Z,20.82
2018-09-21T06:31:48.529Z,20.97
2018-09-21T06:34:18.597Z,21.08
2018-09-21T06:36:47.587Z,21.09
2018-09-21T06:39:16.422Z,21.23
2018-09-21T06:41:45.337Z,21.26
2018-09-21T06:44:14.150Z,21.23
2018-09-21T06:46:42.966Z,21.22
2018-09-21T06:49:13.129Z,21.55
2018-09-21T06:51:41.965Z,21.65
2018-09-21T06:54:10.824Z,21.16
2018-09-21T06:56:39.671Z,21.35
2018-09-21T06:59:08.584Z,21.43
2018-09-21T07:01:37.594Z,21.75
2018-09-21T07:04:06.403Z,21.90
2018-09-21T07:06:35.245Z,22.05
2018-09-21T07:09:05.006Z,22.13
2018-09-21T07:11:33.828Z,22.19
2018-09-21T07:14:02.661Z,22.39
2018-09-21T07:16:32.973Z,22.58
2018-09-21T07:19:01.833Z,22.79
2018-09-21T07:21:30.788Z,22.82
2018-09-21T07:23:59.626Z,22.87
2018-09-21T07:26:28.544Z,23.03
2018-09-21T07:28:58.785Z,22.86
2018-09-21T07:31:27.765Z,23.03
2018-09-21T07:33:56.654Z,23.12
2018-09-21T07:36:26.015Z,23.29
2018-09-21T07:38:54.834Z,23.53
2018-09-21T07:41:24.981Z,23.73
2018-09-21T07:43:54.134Z,23.84
2018-09-21T07:46:23.025Z,23.97
2018-09-21T07:48:51.826Z,23.74
2018-09-21T07:51:26.794Z,24.00
2018-09-21T07:53:55.625Z,24.21
2018-09-21T07:56:24.441Z,24.31
2018-09-21T07:58:53.385Z,24.50
2018-09-21T08:01:22.348Z,24.57
2018-09-21T08:03:51.157Z,24.79
2018-09-21T08:06:20.065Z,24.74
2018-09-21T08:08:48.876Z,24.64
2018-09-21T08:11:17.992Z,24.69
2018-09-21T08:13:46.854Z,24.69
2018-09-21T08:16:15.690Z,24.76
2018-09-21T08:18:44.530Z,24.76
2018-09-21T08:21:14.942Z,24.83
2018-09-21T08:23:43.741Z,24.86
2018-09-21T08:26:12.535Z,24.86
2018-09-21T08:28:42.629Z,24.74
2018-09-21T08:31:11.543Z,24.72
2018-09-21T08:33:40.345Z,24.46
2018-09-21T08:36:09.230Z,24.53
2018-09-21T08:38:38.042Z,24.67
2018-09-21T08:41:07.330Z,24.70
2018-09-21T08:43:37.413Z,24.49
2018-09-21T08:46:06.225Z,24.47
2018-09-21T08:48:35.023Z,24.47
2018-09-21T08:51:05.394Z,24.41
2018-09-21T08:53:34.363Z,24.50
2018-09-21T08:56:03.192Z,24.35
2018-09-21T08:58:33.266Z,24.37
2018-09-21T09:01:02.073Z,24.42
2018-09-21T09:03:30.940Z,24.50
2018-09-21T09:05:59.804Z,24.52
2018-09-21T09:08:28.623Z,24.59
2018-09-21T09:10:57.460Z,24.58
2018-09-21T09:13:26.397Z,24.63
2018-09-21T09:15:55.355Z,24.91
2018-09-21T09:18:24.240Z,24.97
2018-09-21T09:20:53.098Z,24.99
2018-09-21T09:23:21.887Z,24.95
2018-09-21T09:25:50.725Z,24.90
2018-09-21T09:28:19.578Z,24.79
2018-09-21T09:30:48.491Z,24.82
2018-09-21T09:33:17.304Z,24.74
2018-09-21T09:35:46.249Z,24.88
2018-09-21T09:38:15.111Z,24.94
2018-09-21T09:40:44.078Z,25.02
2018-09-21T09:43:14.644Z,25.10
2018-09-21T09:45:43.709Z,25.23
2018-09-21T09:48:12.641Z,25.33
2018-09-21T09:50:42.986Z,25.41
2018-09-21T09:53:11.851Z,25.38
2018-09-21T09:55:40.801Z,25.38
2018-09-21T09:58:09.839Z,25.45
2018-09-21T10:00:43.706Z,25.54
2018-09-21T10:03:12.713Z,25.53
2018-09-21T10:05:42.991Z,25.44
2018-09-21T10:08:12.969Z,25.32
2018-09-21T10:10:42.213Z,25.35
2018-09-21T10:13:11.607Z,25.51
2018-09-21T10:15:40.668Z,25.64
2018-09-21T10:18:09.839Z,25.58
2018-09-21T10:20:38.909Z,25.66
2018-09-21T10:23:07.959Z,25.70
2018-09-21T10:25:38.256Z,25.60
2018-09-21T10:28:07.480Z,25.76
2018-09-21T10:30:36.385Z,25.79
2018-09-21T10:33:06.623Z,25.70
2018-09-21T10:35:35.585Z,25.71
2018-09-21T10:38:04.493Z,25.58
2018-09-21T10:40:34.695Z,25.69
2018-09-21T10:43:05.070Z,25.95
2018-09-21T10:45:36.190Z,25.84
2018-09-21T10:48:05.382Z,25.95
2018-09-21T10:50:35.767Z,26.13
2018-09-21T10:53:04.752Z,26.22
2018-09-21T10:55:33.786Z,26.31
2018-09-21T10:58:04.134Z,26.25
2018-09-21T11:00:33.102Z,26.36
2018-09-21T11:03:02.126Z,26.12
2018-09-21T11:05:31.119Z,26.18
2018-09-21T11:08:00.181Z,26.31
2018-09-21T11:10:30.356Z,26.11
2018-09-21T11:13:00.747Z,26.03
2018-09-21T11:15:29.699Z,26.10
2018-09-21T11:17:58.624Z,26.15
2018-09-21T11:20:27.593Z,26.17
2018-09-21T11:22:56.516Z,26.21
2018-09-21T11:25:25.465Z,26.35
2018-09-21T11:27:54.633Z,26.38
2018-09-21T11:30:23.566Z,26.25
2018-09-21T11:32:52.516Z,26.07
2018-09-21T11:35:21.569Z,26.25
2018-09-21T11:37:50.528Z,26.34
2018-09-21T11:40:19.556Z,26.42
2018-09-21T11:42:48.565Z,26.56
2018-09-21T11:45:17.643Z,26.32
2018-09-21T11:47:46.632Z,26.57
2018-09-21T11:50:16.807Z,26.40
2018-09-21T11:52:45.723Z,26.00
2018-09-21T11:55:16.028Z,25.92
2018-09-21T11:57:45.007Z,26.25
2018-09-21T12:00:14.012Z,26.20
2018-09-21T12:02:44.343Z,26.13
2018-09-21T12:05:13.352Z,26.13
2018-09-21T12:07:42.318Z,26.13
2018-09-21T12:10:11.360Z,25.83
2018-09-21T12:12:40.431Z,25.74
2018-09-21T12:15:09.512Z,25.71
2018-09-21T12:17:38.503Z,25.85
2018-09-21T12:20:07.567Z,25.67
2018-09-21T12:22:36.627Z,25.84
2018-09-21T12:25:06.021Z,26.10
2018-09-21T12:27:35.028Z,26.01
2018-09-21T12:30:04.013Z,25.73
2018-09-21T12:32:32.921Z,25.57
2018-09-21T12:35:01.909Z,25.87
2018-09-21T12:37:30.866Z,25.97
2018-09-21T12:39:59.799Z,25.68
2018-09-21T12:42:28.863Z,25.61
2018-09-21T12:44:57.866Z,25.56
2018-09-21T12:47:26.802Z,25.33
2018-09-21T12:49:55.810Z,25.35
2018-09-21T12:52:24.829Z,25.56
2018-09-21T12:54:53.744Z,25.83
2018-09-21T12:57:24.070Z,25.78
2018-09-21T12:59:53.052Z,25.44
2018-09-21T13:02:22.025Z,25.51
2018-09-21T13:04:51.134Z,25.87
2018-09-21T13:07:20.087Z,25.65
2018-09-21T13:09:50.437Z,25.43
2018-09-21T13:12:19.409Z,25.78
2018-09-21T13:14:48.384Z,25.56
2018-09-21T13:17:17.336Z,25.28
2018-09-21T13:19:46.444Z,25.26
2018-09-21T13:22:15.374Z,25.51
2018-09-21T13:24:44.591Z,25.56
2018-09-21T13:27:13.590Z,26.02
2018-09-21T13:29:42.685Z,26.13
2018-09-21T13:32:11.693Z,26.24
2018-09-21T13:34:40.657Z,26.52
2018-09-21T13:37:09.671Z,26.50
2018-09-21T13:39:38.670Z,26.53
2018-09-21T13:42:07.699Z,26.71
2018-09-21T13:44:36.627Z,26.64
2018-09-21T13:47:05.759Z,26.73
2018-09-21T13:49:34.790Z,26.64
2018-09-21T13:52:03.913Z,26.34
2018-09-21T13:54:32.899Z,26.08
2018-09-21T13:57:01.828Z,26.03
2018-09-21T13:59:30.768Z,26.18
2018-09-21T14:01:59.718Z,25.93
2018-09-21T14:04:28.654Z,25.65
2018-09-21T14:06:57.576Z,26.01
2018-09-21T14:09:26.594Z,26.07
2018-09-21T14:11:55.721Z,25.82
2018-09-21T14:14:24.895Z,26.16
2018-09-21T14:16:53.815Z,26.75
2018-09-21T14:19:23.059Z,26.37
2018-09-21T14:21:52.189Z,26.77
2018-09-21T14:24:21.121Z,26.13
2018-09-21T14:26:50.101Z,25.90
2018-09-21T14:29:19.010Z,26.11
2018-09-21T14:31:47.947Z,25.76
2018-09-21T14:34:18.291Z,25.67
2018-09-21T14:36:47.237Z,25.82
2018-09-21T14:39:16.231Z,25.57
2018-09-21T14:41:46.411Z,25.31
2018-09-21T14:44:15.322Z,25.32
2018-09-21T14:46:44.399Z,25.15
2018-09-21T14:49:14.680Z,25.02
2018-09-21T14:51:43.690Z,24.80
2018-09-21T14:54:12.720Z,24.68
2018-09-21T14:56:41.683Z,24.64
2018-09-21T14:59:10.630Z,24.59
2018-09-21T15:01:39.578Z,24.57
2018-09-21T15:04:08.694Z,24.54
2018-09-21T15:06:37.644Z,24.34
2018-09-21T15:09:09.301Z,24.30
2018-09-21T15:11:38.855Z,24.16
2018-09-21T15:14:07.906Z,24.18
2018-09-21T15:16:38.374Z,23.94
2018-09-21T15:19:07.345Z,23.97
2018-09-21T15:21:36.274Z,23.88
2018-09-21T15:24:05.388Z,23.84
2018-09-21T15:26:34.532Z,23.67
2018-09-21T15:29:03.537Z,23.73
2018-09-21T15:31:32.555Z,23.64
2018-09-21T15:34:01.466Z,23.64
2018-09-21T15:36:31.735Z,23.60
2018-09-21T15:39:00.685Z,23.57
2018-09-21T15:41:29.665Z,23.60
2018-09-21T15:43:58.652Z,23.49
2018-09-21T15:46:27.558Z,23.42
2018-09-21T15:48:56.603Z,23.32
2018-09-21T15:51:26.825Z,23.15
2018-09-21T15:53:55.770Z,23.14
2018-09-21T15:56:24.747Z,23.09
2018-09-21T15:58:55.149Z,22.98
2018-09-21T16:01:24.097Z,22.90
2018-09-21T16:03:54.378Z,22.91
2018-09-21T16:06:23.305Z,22.77
2018-09-21T16:08:52.213Z,22.78
2018-09-21T16:11:21.487Z,22.72
2018-09-21T16:13:50.439Z,22.69
2018-09-21T16:16:20.745Z,22.67
2018-09-21T16:18:49.905Z,22.71
2018-09-21T16:21:18.917Z,22.64
2018-09-21T16:23:47.841Z,22.63
2018-09-21T16:26:18.187Z,22.54
2018-09-21T16:28:47.103Z,22.57
2018-09-21T16:31:16.046Z,22.47
2018-09-21T16:33:46.448Z,22.53
2018-09-21T16:36:15.494Z,22.52
2018-09-21T16:38:44.467Z,22.49
2018-09-21T16:41:13.487Z,22.50
2018-09-21T16:43:42.390Z,22.46
2018-09-21T16:46:11.354Z,22.42
2018-09-21T16:48:40.284Z,22.46
2018-09-21T16:51:10.515Z,22.38
2018-09-21T16:53:39.470Z,22.33
2018-09-21T16:56:09.890Z,22.39
2018-09-21T16:58:38.819Z,22.37
2018-09-21T17:01:07.894Z,22.33
2018-09-21T17:03:38.247Z,22.32
2018-09-21T17:06:07.221Z,22.28
2018-09-21T17:08:37.471Z,22.25
2018-09-21T17:11:06.490Z,22.22
2018-09-21T17:13:35.452Z,22.24
2018-09-21T17:16:04.431Z,22.26
2018-09-21T17:18:33.388Z,22.24
2018-09-21T17:21:03.617Z,22.23
2018-09-21T17:23:32.551Z,22.18
2018-09-21T17:26:01.605Z,22.10
2018-09-21T17:28:32.099Z,22.14
2018-09-21T17:31:01.161Z,22.13
2018-09-21T17:33:30.103Z,22.12
2018-09-21T17:36:00.431Z,22.12
2018-09-21T17:38:29.481Z,22.16
2018-09-21T17:40:58.649Z,22.06
2018-09-21T17:43:27.642Z,22.04
2018-09-21T17:45:56.594Z,22.03
2018-09-21T17:48:25.549Z,22.05
2018-09-21T17:50:54.567Z,21.95
2018-09-21T17:53:23.523Z,21.90
2018-09-21T17:55:52.502Z,21.88
2018-09-21T17:58:21.524Z,21.82
2018-09-21T18:00:50.711Z,21.86
2018-09-21T18:03:19.634Z,21.84
2018-09-21T18:05:48.644Z,21.81
2018-09-21T18:08:17.608Z,21.69
2018-09-21T18:10:46.545Z,21.31
2018-09-21T18:13:16.884Z,21.47
2018-09-21T18:15:45.861Z,21.44
2018-09-21T18:18:14.826Z,21.25
2018-09-21T18:20:43.735Z,21.10
2018-09-21T18:23:12.605Z,21.07
2018-09-21T18:25:41.568Z,20.98
2018-09-21T18:28:11.880Z,20.76
2018-09-21T18:30:40.760Z,20.73
2018-09-21T18:33:09.738Z,20.63
2018-09-21T18:35:38.779Z,20.58
2018-09-21T18:38:07.735Z,20.45
2018-09-21T18:40:36.633Z,20.51
2018-09-21T18:43:05.731Z,20.50
2018-09-21T18:45:35.947Z,20.40
2018-09-21T18:48:04.873Z,20.34
2018-09-21T18:50:33.861Z,20.37
2018-09-21T18:53:04.060Z,20.21
2018-09-21T18:55:33.147Z,20.35
2018-09-21T18:58:02.179Z,20.38
2018-09-21T19:00:31.258Z,20.32
2018-09-21T19:03:00.275Z,20.40
2018-09-21T19:05:29.189Z,20.37
2018-09-21T19:07:58.164Z,20.35
2018-09-21T19:10:27.147Z,20.41
2018-09-21T19:12:56.151Z,20.33
2018-09-21T19:15:25.213Z,20.30
2018-09-21T19:17:55.363Z,20.25
2018-09-21T19:20:24.233Z,20.22
2018-09-21T19:22:54.879Z,20.23
2018-09-21T19:25:23.822Z,20.15
2018-09-21T19:27:52.761Z,20.12
2018-09-21T19:30:21.734Z,20.19
2018-09-21T19:32:50.666Z,20.19
2018-09-21T19:35:20.978Z,20.14
2018-09-21T19:37:49.974Z,20.20
2018-09-21T19:40:18.977Z,20.13
2018-09-21T19:42:48.032Z,20.16
2018-09-21T19:45:17.021Z,20.19
2018-09-21T19:47:45.991Z,20.20
2018-09-21T19:50:14.898Z,20.17
2018-09-21T19:52:43.859Z,20.14
2018-09-21T19:55:12.763Z,20.02
2018-09-21T19:57:41.689Z,19.95
2018-09-21T20:00:11.980Z,20.07
2018-09-21T20:02:40.850Z,20.03
2018-09-21T20:05:09.768Z,20.04
2018-09-21T20:07:38.716Z,20.07
2018-09-21T20:10:07.776Z,20.10
2018-09-21T20:12:36.711Z,20.09
2018-09-21T20:15:05.732Z,20.05
2018-09-21T20:17:34.678Z,20.01
2018-09-21T20:20:04.925Z,19.96
2018-09-21T20:22:33.823Z,19.99
2018-09-21T20:25:02.822Z,19.96
2018-09-21T20:27:31.785Z,19.92
2018-09-21T20:30:06.988Z,20.00
2018-09-21T20:32:41.095Z,19.96
2018-09-21T20:35:10.052Z,19.93
2018-09-21T20:37:39.067Z,19.96
2018-09-21T20:40:09.406Z,19.98
2018-09-21T20:42:39.619Z,19.98
2018-09-21T20:45:09.874Z,19.96
2018-09-21T20:47:38.751Z,19.95
2018-09-21T20:50:07.735Z,19.90
2018-09-21T20:52:37.987Z,19.81
2018-09-21T20:55:07.044Z,19.84
2018-09-21T20:57:36.004Z,19.83
2018-09-21T21:00:06.342Z,19.85
2018-09-21T21:02:35.277Z,19.80
2018-09-21T21:05:04.268Z,19.78
2018-09-21T21:07:33.325Z,19.71
2018-09-21T21:10:02.269Z,19.76
2018-09-21T21:12:31.239Z,19.73
2018-09-21T21:15:01.678Z,19.78
2018-09-21T21:17:30.636Z,19.79
2018-09-21T21:19:59.622Z,19.82
2018-09-21T21:22:28.585Z,19.81
2018-09-21T21:24:57.550Z,19.75
2018-09-21T21:27:26.527Z,19.76
2018-09-21T21:29:55.564Z,19.67
2018-09-21T21:32:24.590Z,19.66
2018-09-21T21:34:53.526Z,19.73
2018-09-21T21:37:22.551Z,19.75
2018-09-21T21:39:51.528Z,19.78
2018-09-21T21:42:20.387Z,19.75
2018-09-21T21:44:49.246Z,19.76
2018-09-21T21:47:18.427Z,19.71
2018-09-21T21:49:47.331Z,19.70
2018-09-21T21:52:16.263Z,19.71
2018-09-21T21:54:45.267Z,19.69
2018-09-21T21:57:14.245Z,19.63
2018-09-21T21:59:44.132Z,19.60
2018-09-21T22:02:13.783Z,19.60
2018-09-21T22:04:43.058Z,19.58
2018-09-21T22:07:12.830Z,19.63
2018-09-21T22:09:43.807Z,19.65
2018-09-21T22:12:18.346Z,19.50
2018-09-21T22:14:54.908Z,19.47
2018-09-21T22:17:27.120Z,19.36
2018-09-21T22:19:57.029Z,19.41
2018-09-21T22:22:27.456Z,19.37
2018-09-21T22:25:00.100Z,19.32
2018-09-21T22:27:33.795Z,19.38
2018-09-21T22:30:09.896Z,19.42
2018-09-21T22:32:44.742Z,18.74
2018-09-21T22:35:20.024Z,18.48
2018-09-21T22:37:59.549Z,18.62
2018-09-21T22:40:28.812Z,18.78
2018-09-21T22:43:01.685Z,18.84
2018-09-21T22:45:31.531Z,18.77
2018-09-21T22:48:00.520Z,18.51
2018-09-21T22:50:29.439Z,18.41
2018-09-21T22:53:00.235Z,18.45
2018-09-21T22:55:29.241Z,18.49
2018-09-21T22:57:58.133Z,18.54
2018-09-21T23:00:27.258Z,18.40
2018-09-21T23:02:56.339Z,18.49
2018-09-21T23:05:25.206Z,18.59
2018-09-21T23:07:54.059Z,18.63
2018-09-21T23:10:23.242Z,18.64
2018-09-21T23:12:52.155Z,18.59
2018-09-21T23:15:21.219Z,18.38
2018-09-21T23:17:50.088Z,18.32
2018-09-21T23:20:19.027Z,18.35
2018-09-21T23:22:47.879Z,18.32
2018-09-21T23:25:16.928Z,18.21
2018-09-21T23:27:45.804Z,18.19
2018-09-21T23:30:14.642Z,18.17
2018-09-21T23:32:43.512Z,18.12
2018-09-21T23:35:12.402Z,18.07
2018-09-21T23:37:41.239Z,18.17
2018-09-21T23:40:10.166Z,18.28
2018-09-21T23:42:39.258Z,18.31
2018-09-21T23:45:08.440Z,18.31
2018-09-21T23:47:37.314Z,18.34
2018-09-21T23:50:06.290Z,18.31
2018-09-21T23:52:35.198Z,18.34
2018-09-21T23:55:04.121Z,18.29
2018-09-21T23:57:33.132Z,18.22
